Time;durP1;ratioP1;P1;durP2;ratioP2;P2;SDS_P1;SDS_P2;PMS_P1;PMS_P2;Temp;Humidity;BMP_temperature;BMP_pressure;BME280_temperature;BME280_humidity;BME280_pressure;Samples;Min_cycle;Max_cycle;Signal;HPM_P1;HPM_P2
2022/02/17 00:02:22;;;;;;;0.33;0.33;;;;;;;10.44;100.00;97811.59;5020854;28;20203;-75
2022/02/17 00:04:48;;;;;;;0.37;0.37;;;;;;;10.40;100.00;97792.72;5016246;28;20213;-75
2022/02/17 00:07:14;;;;;;;0.37;0.30;;;;;;;10.39;100.00;97796.25;5015442;28;20212;-75
2022/02/17 00:09:41;;;;;;;0.40;0.40;;;;;;;10.41;100.00;97784.00;5007402;28;20232;-78
2022/02/17 00:12:09;;;;;;;0.40;0.40;;;;;;;10.32;100.00;97779.41;5013082;28;20569;-77
2022/02/17 00:14:36;;;;;;;0.30;0.30;;;;;;;10.50;100.00;97768.63;5012038;28;20220;-74
2022/02/17 00:17:02;;;;;;;0.47;0.40;;;;;;;10.52;100.00;97751.16;5018366;28;20201;-74
2022/02/17 00:19:28;;;;;;;0.37;0.37;;;;;;;10.57;100.00;97754.22;5010200;28;20240;-74
2022/02/17 00:21:55;;;;;;;0.40;0.40;;;;;;;10.64;100.00;97763.28;5013350;28;20207;-75
2022/02/17 00:24:22;;;;;;;0.40;0.40;;;;;;;10.71;100.00;97740.22;5017794;28;20326;-75
2022/02/17 00:26:49;;;;;;;0.40;0.40;;;;;;;10.68;100.00;97754.31;5009494;28;20201;-75
2022/02/17 00:29:16;;;;;;;0.30;0.30;;;;;;;10.75;100.00;97752.91;5019559;28;20210;-76
2022/02/17 00:31:43;;;;;;;0.20;0.20;;;;;;;10.78;100.00;97757.06;5011169;28;20211;-76
2022/02/17 00:34:10;;;;;;;0.40;0.40;;;;;;;10.98;100.00;97735.59;5015480;28;20217;-75
2022/02/17 00:36:37;;;;;;;0.30;0.30;;;;;;;11.02;100.00;97741.41;5016647;28;20208;-73
2022/02/17 00:39:05;;;;;;;0.37;0.37;;;;;;;11.05;100.00;97730.75;5017414;28;20218;-74
2022/02/17 00:41:32;;;;;;;0.23;0.23;;;;;;;11.10;100.00;97726.03;5014820;28;20214;-75
2022/02/17 00:43:59;;;;;;;0.23;0.23;;;;;;;11.17;100.00;97726.41;5008576;28;20234;-73
2022/02/17 00:46:27;;;;;;;0.97;0.17;;;;;;;11.24;100.00;97730.22;5021861;28;20194;-76
2022/02/17 00:48:54;;;;;;;0.53;0.23;;;;;;;11.36;100.00;97713.66;5017784;28;20488;-76
2022/02/17 00:51:20;;;;;;;0.20;0.20;;;;;;;11.33;100.00;97711.28;5016928;28;20715;-74
2022/02/17 00:53:46;;;;;;;0.20;0.20;;;;;;;11.44;100.00;97707.03;5009741;28;20315;-73
2022/02/17 00:56:13;;;;;;;0.13;0.13;;;;;;;11.53;100.00;97688.06;5015390;28;20197;-75
2022/02/17 00:58:40;;;;;;;0.30;0.30;;;;;;;11.53;100.00;97725.41;5023240;28;20203;-75
2022/02/17 01:01:21;;;;;;;0.40;0.40;;;;;;;11.56;100.00;97696.47;5016689;28;20217;-76
2022/02/17 01:03:49;;;;;;;0.30;0.30;;;;;;;11.59;100.00;97687.59;5020272;28;20845;-75
2022/02/17 01:06:15;;;;;;;1.57;0.20;;;;;;;11.51;100.00;97676.91;5014846;28;20208;-76
2022/02/17 01:08:42;;;;;;;0.20;0.20;;;;;;;11.49;100.00;97686.63;5020590;28;20820;-75
2022/02/17 01:11:08;;;;;;;0.30;0.30;;;;;;;11.63;100.00;97681.19;5017228;28;20227;-75
2022/02/17 01:13:35;;;;;;;0.97;0.20;;;;;;;11.57;100.00;97663.38;5017972;28;20206;-75
2022/02/17 01:16:02;;;;;;;0.40;0.30;;;;;;;11.36;100.00;97671.06;5016302;28;20227;-75
2022/02/17 01:18:29;;;;;;;0.20;0.20;;;;;;;11.17;100.00;97643.78;5015568;28;20212;-74
2022/02/17 01:20:57;;;;;;;0.10;0.10;;;;;;;11.06;100.00;97612.47;5021080;28;20275;-75
2022/02/17 01:23:24;;;;;;;1.40;0.10;;;;;;;11.05;100.00;97610.84;5022768;28;20219;-75
2022/02/17 01:25:51;;;;;;;0.30;0.30;;;;;;;11.02;100.00;97594.59;5021692;28;20551;-75
2022/02/17 01:28:18;;;;;;;0.20;0.20;;;;;;;10.94;100.00;97589.94;5015109;28;20264;-74
2022/02/17 01:30:49;;;;;;;0.10;0.10;;;;;;;10.96;100.00;97581.06;5013885;28;20736;-75
2022/02/17 01:33:17;;;;;;;0.20;0.20;;;;;;;11.02;100.00;97558.09;5017502;28;20211;-75
2022/02/17 01:35:53;;;;;;;0.20;0.20;;;;;;;11.04;100.00;97566.63;5017603;28;20241;-75
2022/02/17 01:38:24;;;;;;;0.10;0.10;;;;;;;11.01;100.00;97553.81;5025082;28;20216;-75
2022/02/17 01:40:51;;;;;;;0.23;0.20;;;;;;;11.08;100.00;97536.75;5028891;28;20254;-76
2022/02/17 01:43:18;;;;;;;0.30;0.30;;;;;;;11.16;100.00;97524.78;5018831;28;20206;-75
2022/02/17 01:45:45;;;;;;;0.20;0.20;;;;;;;11.22;100.00;97509.59;5024494;28;20205;-76
2022/02/17 01:48:13;;;;;;;1.60;0.10;;;;;;;11.33;100.00;97522.66;5028976;28;20566;-76
2022/02/17 01:50:44;;;;;;;0.93;0.20;;;;;;;11.49;100.00;97525.69;5020874;28;20228;-75
2022/02/17 01:53:12;;;;;;;0.73;0.30;;;;;;;11.62;100.00;97533.38;5024403;28;20932;-76
2022/02/17 01:55:42;;;;;;;0.77;0.30;;;;;;;11.70;100.00;97543.22;5022380;28;20237;-74
2022/02/17 01:58:09;;;;;;;0.20;0.20;;;;;;;11.74;100.00;97539.41;5018808;28;20208;-74
2022/02/17 02:00:36;;;;;;;1.17;0.20;;;;;;;11.88;100.00;97551.34;5018612;28;20228;-75
2022/02/17 02:03:05;;;;;;;1.17;0.23;;;;;;;11.88;100.00;97523.47;5013805;28;20313;-75
2022/02/17 02:05:50;;;;;;;1.33;0.20;;;;;;;11.92;100.00;97524.06;5023599;28;20290;-75
2022/02/17 02:08:17;;;;;;;0.33;0.30;;;;;;;11.93;100.00;97539.63;5013910;28;20211;-77
2022/02/17 02:10:46;;;;;;;0.37;0.20;;;;;;;11.93;100.00;97537.00;5023758;28;20298;-76
2022/02/17 02:13:13;;;;;;;0.20;0.20;;;;;;;12.00;100.00;97531.31;5023082;28;20210;-76
2022/02/17 02:15:47;;;;;;;0.20;0.20;;;;;;;12.01;100.00;97532.94;5027554;28;20238;-74
2022/02/17 02:18:15;;;;;;;0.60;0.20;;;;;;;11.92;100.00;97530.16;5022456;28;20207;-76
2022/02/17 02:20:50;;;;;;;0.20;0.20;;;;;;;11.90;100.00;97526.81;5023093;28;20232;-76
2022/02/17 02:23:20;;;;;;;0.87;0.10;;;;;;;11.86;100.00;97569.75;5017867;28;20701;-76
2022/02/17 02:25:52;;;;;;;0.37;0.10;;;;;;;11.74;100.00;97646.41;5025334;28;20192;-76
2022/02/17 02:28:28;;;;;;;4.77;0.70;;;;;;;10.58;100.00;97845.31;5017809;28;20204;-78
2022/02/17 02:30:57;;;;;;;3.27;0.97;;;;;;;6.54;100.00;97837.38;5027005;28;20620;-77
2022/02/17 02:33:26;;;;;;;4.27;0.90;;;;;;;6.10;100.00;97845.75;5020294;28;20204;-77
2022/02/17 02:35:55;;;;;;;4.00;1.10;;;;;;;6.05;100.00;97852.00;5023223;28;20237;-78
2022/02/17 02:38:24;;;;;;;3.50;1.00;;;;;;;6.00;100.00;97887.59;5016481;28;20211;-80
2022/02/17 02:40:51;;;;;;;2.10;0.67;;;;;;;6.03;100.00;97879.69;5028711;28;20220;-77
2022/02/17 02:43:38;;;;;;;2.53;0.90;;;;;;;6.02;100.00;97834.03;5024196;28;20218;-77
2022/02/17 02:46:08;;;;;;;4.17;1.00;;;;;;;6.07;100.00;97880.38;5028904;28;20201;-78
2022/02/17 02:48:36;;;;;;;2.30;0.90;;;;;;;6.10;100.00;97856.09;5024499;28;20227;-78
2022/02/17 02:51:09;;;;;;;4.70;1.00;;;;;;;6.09;100.00;97810.47;5040513;28;20240;-78
2022/02/17 02:53:35;;;;;;;0.83;0.67;;;;;;;6.06;100.00;97799.31;5026062;28;20706;-78
2022/02/17 02:56:02;;;;;;;1.60;0.77;;;;;;;6.04;100.00;97814.09;5028998;28;20220;-75
2022/02/17 02:58:29;;;;;;;2.70;0.97;;;;;;;6.06;100.00;97825.19;5020464;28;20210;-77
2022/02/17 03:00:55;;;;;;;4.37;0.90;;;;;;;6.09;100.00;97828.56;5012243;28;20252;-77
2022/02/17 03:03:22;;;;;;;2.37;0.90;;;;;;;6.10;100.00;97822.47;5024978;28;20211;-78
2022/02/17 03:05:48;;;;;;;5.27;0.80;;;;;;;6.11;100.00;97819.78;5023605;28;20215;-77
2022/02/17 03:08:18;;;;;;;3.23;1.33;;;;;;;6.14;100.00;97814.47;5016471;28;20208;-76
2022/02/17 03:10:46;;;;;;;2.37;0.77;;;;;;;6.14;100.00;97801.53;5021107;28;20234;-77
2022/02/17 03:13:32;;;;;;;3.07;1.00;;;;;;;6.13;100.00;97812.78;5020299;28;20569;-76
2022/02/17 03:15:58;;;;;;;2.77;0.83;;;;;;;6.13;100.00;97807.59;5019120;28;20228;-76
2022/02/17 03:18:26;;;;;;;4.10;1.20;;;;;;;6.17;100.00;97811.69;5026510;28;20207;-77
2022/02/17 03:20:52;;;;;;;6.20;0.90;;;;;;;6.22;100.00;97809.69;5030172;28;20223;-76
2022/02/17 03:23:23;;;;;;;5.13;1.20;;;;;;;6.28;100.00;97794.78;5019608;28;20207;-76
2022/02/17 03:25:57;;;;;;;6.37;1.20;;;;;;;6.31;100.00;97785.09;5027716;28;20203;-76
2022/02/17 03:28:23;;;;;;;3.03;1.40;;;;;;;6.35;100.00;97785.75;5020544;28;20227;-75
2022/02/17 03:30:54;;;;;;;4.53;1.13;;;;;;;6.35;100.00;97767.63;5025542;28;20220;-78
2022/02/17 03:33:21;;;;;;;5.07;1.37;;;;;;;6.33;100.00;97772.94;5028305;28;20237;-77
2022/02/17 03:35:50;;;;;;;6.20;2.20;;;;;;;6.33;100.00;97782.41;5023439;28;20227;-76
2022/02/17 03:38:18;;;;;;;6.13;1.30;;;;;;;6.32;100.00;97778.19;5021183;28;20201;-77
2022/02/17 03:40:51;;;;;;;3.40;1.33;;;;;;;6.33;100.00;97766.88;5019416;28;20220;-77
2022/02/17 03:43:20;;;;;;;3.90;0.90;;;;;;;6.32;100.00;97784.19;5018556;28;20722;-78
2022/02/17 03:46:36;;;;;;;4.53;1.07;;;;;;;6.32;100.00;97757.47;5017957;28;20199;-77
2022/02/17 03:49:04;;;;;;;3.07;1.10;;;;;;;6.29;100.00;97753.28;5018723;28;20287;-78
2022/02/17 03:51:31;;;;;;;2.10;1.40;;;;;;;6.28;100.00;97749.03;5025066;28;20266;-76
2022/02/17 03:53:58;;;;;;;5.40;1.30;;;;;;;6.32;100.00;97754.88;5018245;28;20211;-77
2022/02/17 03:56:25;;;;;;;6.30;1.10;;;;;;;6.33;100.00;97751.38;5021419;28;20227;-77
2022/02/17 03:59:10;;;;;;;5.90;1.60;;;;;;;6.38;100.00;97746.78;5020689;28;20262;-77
2022/02/17 04:01:43;;;;;;;7.10;1.10;;;;;;;6.37;100.00;97737.38;5029621;28;20199;-77
2022/02/17 04:04:12;;;;;;;4.53;1.33;;;;;;;6.42;100.00;97737.91;5022163;28;20210;-77
2022/02/17 04:06:41;;;;;;;5.03;1.10;;;;;;;6.44;100.00;97731.75;5017147;28;20208;-77
2022/02/17 04:09:09;;;;;;;4.17;1.33;;;;;;;6.47;100.00;97735.91;5025786;28;20219;-77
2022/02/17 04:11:37;;;;;;;3.53;1.50;;;;;;;6.46;100.00;97739.44;5010130;28;20211;-77
2022/02/17 04:14:04;;;;;;;2.87;1.30;;;;;;;6.47;100.00;97716.97;5019535;28;20885;-77
2022/02/17 04:16:45;;;;;;;4.83;1.40;;;;;;;6.46;100.00;97702.38;5012728;28;20219;-77
2022/02/17 04:19:18;;;;;;;3.63;1.43;;;;;;;6.46;100.00;97697.19;5017774;28;20212;-77
2022/02/17 04:21:57;;;;;;;2.03;1.20;;;;;;;6.53;100.00;97670.88;5023681;28;20204;-78
2022/02/17 04:24:36;;;;;;;2.57;1.27;;;;;;;6.53;100.00;97649.34;5033173;28;20202;-78
2022/02/17 04:27:04;;;;;;;5.20;1.27;;;;;;;6.58;100.00;97668.84;5021708;28;20199;-77
2022/02/17 04:29:34;;;;;;;4.80;1.70;;;;;;;6.66;100.00;97667.59;5022153;28;20270;-75
2022/02/17 04:32:02;;;;;;;4.20;1.63;;;;;;;6.64;100.00;97671.06;5020156;28;20693;-77
2022/02/17 04:34:29;;;;;;;4.00;1.20;;;;;;;6.69;100.00;97649.28;5024788;28;20197;-77
2022/02/17 04:37:05;;;;;;;4.30;1.43;;;;;;;6.68;100.00;97640.66;5020268;28;20220;-77
2022/02/17 04:39:32;;;;;;;4.00;1.30;;;;;;;6.71;100.00;97650.84;5025204;28;20231;-76
2022/02/17 04:44:44;;;;;;;4.37;1.13;;;;;;;6.76;100.00;97661.78;5001268;28;20315;-77
2022/02/17 04:47:11;;;;;;;3.97;1.40;;;;;;;6.83;100.00;97672.63;5020984;28;20268;-77
2022/02/17 04:49:38;;;;;;;4.83;1.40;;;;;;;6.85;100.00;97675.13;5026753;28;20315;-77
2022/02/17 04:52:05;;;;;;;4.83;1.37;;;;;;;6.92;100.00;97708.34;5017316;28;20201;-77
2022/02/17 04:54:32;;;;;;;5.97;1.60;;;;;;;6.99;100.00;97708.84;5026427;28;20207;-78
2022/02/17 04:57:00;;;;;;;6.83;1.70;;;;;;;7.05;100.00;97712.81;5018038;28;20233;-78
2022/02/17 04:59:29;;;;;;;6.00;1.80;;;;;;;7.15;100.00;97751.06;5033130;28;20225;-77
2022/02/17 05:01:58;;;;;;;7.80;1.67;;;;;;;7.16;100.00;97757.91;5018111;28;20749;-77
2022/02/17 05:04:34;;;;;;;4.83;1.50;;;;;;;7.17;100.00;97772.53;5027909;28;20303;-76
2022/02/17 05:07:06;;;;;;;3.47;1.20;;;;;;;7.16;100.00;97772.66;5021221;28;20213;-77
2022/02/17 05:09:34;;;;;;;3.80;1.30;;;;;;;7.17;100.00;97782.88;5024161;28;20228;-76
2022/02/17 05:12:01;;;;;;;2.57;1.30;;;;;;;7.21;100.00;97796.50;5015018;28;20205;-76
2022/02/17 05:14:28;;;;;;;3.13;1.20;;;;;;;7.24;100.00;97798.09;5026960;28;20563;-77
2022/02/17 05:16:55;;;;;;;5.97;1.60;;;;;;;7.34;100.00;97813.03;5021535;28;20270;-75
2022/02/17 05:19:27;;;;;;;4.60;1.43;;;;;;;7.26;100.00;97802.25;5029964;28;20683;-76
2022/02/17 05:22:14;;;;;;;9.43;1.50;;;;;;;7.37;100.00;97809.44;5017320;28;20204;-76
2022/02/17 05:24:43;;;;;;;4.67;1.63;;;;;;;7.42;100.00;97812.56;5032430;28;20218;-75
2022/02/17 05:27:37;;;;;;;6.00;1.60;;;;;;;7.51;100.00;97816.41;5017845;28;20215;-76
2022/02/17 05:30:23;;;;;;;3.50;1.30;;;;;;;7.39;100.00;97813.59;5018167;28;20219;-76
2022/02/17 05:33:09;;;;;;;4.77;1.40;;;;;;;7.44;98.79;97800.38;5016874;28;20227;-76
2022/02/17 05:35:55;;;;;;;3.93;1.20;;;;;;;7.48;97.72;97845.13;5025484;28;20360;-76
2022/02/17 05:38:41;;;;;;;6.97;1.43;;;;;;;7.45;97.63;97847.88;5020891;28;20200;-75
2022/02/17 05:41:30;;;;;;;2.43;1.10;;;;;;;7.42;96.13;97866.19;5022409;28;20573;-78
2022/02/17 05:43:56;;;;;;;5.27;1.23;;;;;;;7.38;94.54;97850.81;5018269;28;20766;-76
2022/02/17 05:46:23;;;;;;;3.10;1.20;;;;;;;7.35;95.04;97857.94;5026221;28;20220;-77
2022/02/17 05:48:50;;;;;;;3.10;1.20;;;;;;;7.30;94.27;97868.56;5021303;28;20192;-77
2022/02/17 05:51:18;;;;;;;3.40;1.20;;;;;;;7.37;93.72;97902.75;5021800;28;20581;-77
2022/02/17 05:53:45;;;;;;;2.30;1.30;;;;;;;7.28;93.44;97905.84;5021808;28;20204;-78
2022/02/17 05:56:12;;;;;;;3.40;1.00;;;;;;;7.33;92.18;97947.91;5025563;28;20220;-77
2022/02/17 05:58:38;;;;;;;5.73;1.00;;;;;;;7.33;92.11;97933.19;5023934;28;20195;-77
2022/02/17 06:01:05;;;;;;;2.77;0.97;;;;;;;7.32;91.65;97915.97;5022425;28;20222;-77
2022/02/17 06:03:33;;;;;;;4.63;1.27;;;;;;;7.29;92.61;97949.00;5023300;28;20206;-78
2022/02/17 06:05:59;;;;;;;3.37;1.00;;;;;;;7.24;92.06;97945.81;5019369;28;20203;-77
2022/02/17 06:08:27;;;;;;;5.77;1.33;;;;;;;7.24;92.18;97931.09;5015895;28;20224;-77
2022/02/17 06:10:54;;;;;;;5.63;1.03;;;;;;;7.24;92.93;97976.94;5021044;28;20232;-76
2022/02/17 06:13:20;;;;;;;5.37;1.37;;;;;;;7.19;93.03;97979.75;5018488;28;20211;-76
2022/02/17 06:15:49;;;;;;;5.60;1.20;;;;;;;7.16;91.74;97983.38;5023364;28;20216;-76
2022/02/17 06:18:15;;;;;;;2.80;1.00;;;;;;;7.08;94.86;97976.91;5021845;28;20585;-75
2022/02/17 06:20:43;;;;;;;3.80;0.83;;;;;;;6.98;93.46;97961.88;5022536;28;20220;-78
2022/02/17 06:23:09;;;;;;;1.43;1.00;;;;;;;6.88;93.52;97986.59;5022586;28;20207;-76
2022/02/17 06:25:37;;;;;;;1.23;0.80;;;;;;;6.75;95.08;97986.38;5022746;28;20230;-76
2022/02/17 06:28:04;;;;;;;2.93;0.90;;;;;;;6.70;94.97;97977.19;5015882;28;20251;-76
2022/02/17 06:30:31;;;;;;;4.03;1.10;;;;;;;6.63;95.78;98000.84;5026114;28;20586;-77
2022/02/17 06:32:58;;;;;;;2.17;1.00;;;;;;;6.68;94.91;97997.16;5020716;28;20195;-76
2022/02/17 06:35:29;;;;;;;4.80;1.10;;;;;;;6.78;92.65;98011.31;5017111;28;20196;-76
2022/02/17 06:37:56;;;;;;;4.53;1.20;;;;;;;6.69;94.51;98012.63;5018870;28;20224;-77
2022/02/17 06:40:24;;;;;;;2.83;1.00;;;;;;;6.73;93.64;98027.06;5021678;28;20237;-76
2022/02/17 06:42:52;;;;;;;4.33;1.03;;;;;;;6.65;95.61;98013.69;5017588;28;20295;-77
2022/02/17 06:45:22;;;;;;;7.23;1.33;;;;;;;6.69;95.38;98029.91;5019959;28;20211;-76
2022/02/17 06:47:48;;;;;;;5.17;1.30;;;;;;;6.60;96.70;98039.00;5018943;28;20204;-76
2022/02/17 06:50:15;;;;;;;3.17;1.10;;;;;;;6.58;97.50;98046.00;5018809;28;20216;-76
2022/02/17 06:52:41;;;;;;;3.37;1.10;;;;;;;6.55;97.62;98044.41;5015764;28;20200;-76
2022/02/17 06:55:08;;;;;;;2.37;0.90;;;;;;;6.56;96.82;98047.81;5015841;28;20201;-75
2022/02/17 06:57:35;;;;;;;5.13;1.10;;;;;;;6.53;97.51;98041.03;5015484;28;20224;-74
2022/02/17 07:00:05;;;;;;;4.57;1.20;;;;;;;6.57;96.88;98062.44;5020617;28;20307;-75
2022/02/17 07:02:33;;;;;;;5.00;1.07;;;;;;;6.66;94.86;98058.56;5015447;28;20254;-75
2022/02/17 07:05:00;;;;;;;4.40;1.30;;;;;;;6.57;96.58;98060.69;5016248;28;20207;-76
2022/02/17 07:07:26;;;;;;;2.93;1.10;;;;;;;6.57;96.41;98083.97;5020630;28;20196;-76
2022/02/17 07:09:53;;;;;;;5.00;1.00;;;;;;;6.56;96.66;98078.88;5020125;28;20780;-76
2022/02/17 07:12:19;;;;;;;4.80;1.07;;;;;;;6.58;97.37;98075.31;5019678;28;20207;-76
2022/02/17 07:14:46;;;;;;;2.33;1.00;;;;;;;6.60;98.06;98085.59;5020933;28;20645;-76
2022/02/17 07:17:13;;;;;;;2.07;1.00;;;;;;;6.54;100.00;98080.72;5020564;28;20505;-75
2022/02/17 07:19:40;;;;;;;3.90;1.20;;;;;;;6.51;100.00;98075.69;5018990;28;20228;-76
2022/02/17 07:22:06;;;;;;;2.63;1.10;;;;;;;6.49;100.00;98077.50;5021844;28;20196;-76
2022/02/17 07:24:33;;;;;;;3.60;1.10;;;;;;;6.53;100.00;98087.66;5018464;28;20239;-76
2022/02/17 07:26:59;;;;;;;6.63;1.27;;;;;;;6.60;100.00;98090.78;5020415;28;20200;-76
2022/02/17 07:29:25;;;;;;;3.03;1.40;;;;;;;6.63;100.00;98090.59;5020673;28;20736;-77
2022/02/17 07:31:52;;;;;;;5.03;1.30;;;;;;;6.59;100.00;98099.44;5012465;28;20212;-76
2022/02/17 07:34:21;;;;;;;2.77;1.13;;;;;;;6.62;98.81;98094.13;5020006;28;20203;-77
2022/02/17 07:36:47;;;;;;;4.90;1.30;;;;;;;6.67;95.29;98102.50;5019379;28;20265;-77
2022/02/17 07:39:14;;;;;;;6.77;1.47;;;;;;;6.66;94.34;98105.16;5018984;28;20200;-76
2022/02/17 07:41:41;;;;;;;7.37;1.63;;;;;;;6.71;90.76;98109.19;5016032;28;20212;-76
2022/02/17 07:44:08;;;;;;;7.03;1.23;;;;;;;6.73;88.82;98109.94;5022234;28;20281;-77
2022/02/17 07:46:36;;;;;;;4.93;1.53;;;;;;;6.78;87.77;98107.13;5020813;28;20259;-77
2022/02/17 07:49:03;;;;;;;7.07;1.60;;;;;;;6.79;87.25;98112.22;5020442;28;20250;-76
2022/02/17 07:51:32;;;;;;;11.60;1.70;;;;;;;6.97;84.25;98107.03;5015344;28;20231;-77
2022/02/17 07:53:58;;;;;;;6.40;1.40;;;;;;;6.97;83.76;98126.00;5022028;28;20219;-76
2022/02/17 07:56:25;;;;;;;4.80;1.53;;;;;;;7.00;84.23;98114.63;5017854;28;20215;-76
2022/02/17 07:58:51;;;;;;;6.17;1.63;;;;;;;7.10;82.80;98139.16;5019273;28;20204;-77
2022/02/17 08:01:18;;;;;;;8.17;1.50;;;;;;;7.21;82.09;98130.81;5019067;28;20893;-76
2022/02/17 08:03:45;;;;;;;4.93;1.67;;;;;;;7.24;82.68;98130.66;5018301;28;20196;-77
2022/02/17 08:06:12;;;;;;;6.70;1.63;;;;;;;7.28;82.77;98131.34;5018554;28;20193;-77
2022/02/17 08:08:41;;;;;;;6.40;1.10;;;;;;;7.41;80.81;98155.72;5016248;28;20739;-77
2022/02/17 08:11:07;;;;;;;6.37;1.50;;;;;;;7.40;79.15;98141.06;5021257;28;20307;-77
2022/02/17 08:13:34;;;;;;;7.00;1.63;;;;;;;7.49;78.91;98155.28;5024233;28;20200;-77
2022/02/17 08:16:00;;;;;;;4.57;1.30;;;;;;;7.48;77.49;98148.47;5018851;28;20204;-77
2022/02/17 08:18:26;;;;;;;2.67;1.10;;;;;;;7.59;75.46;98166.88;5020448;28;20219;-76
2022/02/17 08:20:53;;;;;;;6.93;1.70;;;;;;;7.63;75.47;98162.34;5021969;28;20231;-78
2022/02/17 08:23:19;;;;;;;9.63;1.60;;;;;;;7.65;75.16;98160.50;5020512;28;20283;-77
2022/02/17 08:25:47;;;;;;;4.77;1.63;;;;;;;7.56;76.46;98152.31;5020170;28;20815;-77
2022/02/17 08:28:14;;;;;;;3.97;1.23;;;;;;;7.61;75.38;98167.63;5021146;28;20195;-77
2022/02/17 08:30:40;;;;;;;7.50;1.57;;;;;;;7.65;76.28;98174.34;5018277;28;20231;-77
2022/02/17 08:33:07;;;;;;;6.03;1.50;;;;;;;7.73;77.16;98173.91;5021339;28;20204;-77
2022/02/17 08:35:33;;;;;;;6.40;1.77;;;;;;;7.80;77.16;98174.44;5020926;28;20298;-77
2022/02/17 08:38:00;;;;;;;5.00;1.93;;;;;;;7.86;78.95;98168.91;5017236;28;20232;-76
2022/02/17 08:40:28;;;;;;;2.67;1.20;;;;;;;7.88;77.51;98167.91;5014211;28;20212;-76
2022/02/17 08:43:08;;;;;;;4.23;1.27;;;;;;;7.89;78.58;98198.09;5019791;28;20212;-77
2022/02/17 08:45:35;;;;;;;4.10;1.30;;;;;;;7.90;77.08;98198.97;5019763;28;20838;-76
2022/02/17 08:48:01;;;;;;;3.40;1.47;;;;;;;7.89;75.88;98199.88;5022558;28;20221;-77
2022/02/17 08:50:28;;;;;;;4.93;1.37;;;;;;;7.89;77.84;98208.47;5019817;28;20235;-77
2022/02/17 08:52:54;;;;;;;6.10;1.47;;;;;;;7.86;78.62;98219.03;5018907;28;20248;-76
2022/02/17 08:55:20;;;;;;;4.47;1.17;;;;;;;7.81;79.14;98218.44;5020970;28;20215;-76
2022/02/17 08:57:47;;;;;;;3.03;1.13;;;;;;;7.78;78.73;98245.38;5014240;28;20730;-77
2022/02/17 09:00:17;;;;;;;5.07;1.50;;;;;;;7.80;77.25;98229.72;5024338;28;20226;-76
2022/02/17 09:02:44;;;;;;;4.43;1.77;;;;;;;7.81;75.58;98279.84;5015517;28;20206;-75
2022/02/17 09:05:11;;;;;;;3.57;1.40;;;;;;;7.89;72.38;98269.91;5021442;28;20763;-77
2022/02/17 09:07:37;;;;;;;4.80;1.27;;;;;;;7.88;73.42;98244.88;5016285;28;20696;-76
2022/02/17 09:10:05;;;;;;;3.53;1.20;;;;;;;7.88;71.40;98247.47;5020008;28;20759;-76
2022/02/17 09:12:31;;;;;;;3.40;1.23;;;;;;;7.84;71.60;98244.22;5019136;28;20200;-76
2022/02/17 09:14:57;;;;;;;4.57;1.67;;;;;;;7.94;71.80;98232.44;5021310;28;20215;-77
2022/02/17 09:17:26;;;;;;;5.70;1.30;;;;;;;7.93;71.90;98268.84;5018957;28;20220;-77
2022/02/17 09:19:52;;;;;;;5.93;1.60;;;;;;;8.10;72.89;98229.84;5022465;28;20727;-77
2022/02/17 09:22:19;;;;;;;4.73;2.13;;;;;;;8.13;71.24;98266.03;5020227;28;20692;-77
2022/02/17 09:24:46;;;;;;;6.27;2.67;;;;;;;8.12;69.92;98266.09;5027940;28;20201;-77
2022/02/17 09:27:12;;;;;;;4.00;2.60;;;;;;;8.19;70.74;98279.59;5023161;28;20208;-76
2022/02/17 09:29:40;;;;;;;3.83;1.60;;;;;;;8.20;71.96;98269.13;5022562;28;20878;-77
2022/02/17 09:32:07;;;;;;;8.30;1.80;;;;;;;8.19;69.94;98285.63;5019681;28;20213;-77
2022/02/17 09:34:37;;;;;;;6.00;1.80;;;;;;;8.27;69.11;98280.84;5023691;28;20199;-78
2022/02/17 09:37:03;;;;;;;4.70;1.50;;;;;;;8.29;68.28;98297.19;5019251;28;20266;-77
2022/02/17 09:39:33;;;;;;;7.20;2.07;;;;;;;8.32;68.75;98291.84;5022780;28;20228;-76
2022/02/17 09:42:01;;;;;;;4.17;1.40;;;;;;;8.42;68.81;98312.97;5016924;28;20783;-77
2022/02/17 09:44:28;;;;;;;5.03;1.47;;;;;;;8.48;68.71;98315.25;5018041;28;20201;-77
2022/02/17 09:46:55;;;;;;;3.13;1.23;;;;;;;8.42;69.18;98310.38;5020876;28;20198;-78
2022/02/17 09:49:22;;;;;;;5.13;1.30;;;;;;;8.37;68.38;98314.09;5025369;28;20742;-77
2022/02/17 09:51:52;;;;;;;5.37;1.10;;;;;;;8.33;69.79;98297.84;5016389;28;20209;-76
2022/02/17 09:54:21;;;;;;;4.20;1.37;;;;;;;8.37;65.93;98307.16;5020907;28;20215;-75
2022/02/17 09:56:51;;;;;;;4.67;1.33;;;;;;;8.53;64.93;98327.97;5020063;28;20280;-77
2022/02/17 09:59:18;;;;;;;3.03;1.50;;;;;;;8.40;65.45;98340.75;5022225;28;20200;-76
2022/02/17 10:01:54;;;;;;;8.80;1.67;;;;;;;8.43;64.86;98338.03;5015824;28;20209;-77
2022/02/17 10:04:24;;;;;;;3.80;1.13;;;;;;;8.47;64.35;98344.72;5025952;28;20206;-75
2022/02/17 10:06:53;;;;;;;5.90;1.37;;;;;;;8.47;62.67;98355.09;5021874;28;20197;-76
2022/02/17 10:09:21;;;;;;;4.60;1.13;;;;;;;8.53;62.63;98360.00;5022550;28;20271;-75
2022/02/17 10:11:51;;;;;;;5.93;1.60;;;;;;;8.58;61.65;98372.72;5018342;28;20205;-76
2022/02/17 10:14:19;;;;;;;5.87;1.30;;;;;;;8.60;62.06;98377.81;5024037;28;20197;-77
2022/02/17 10:16:54;;;;;;;4.40;1.40;;;;;;;8.63;60.49;98377.66;5021022;28;20672;-77
2022/02/17 10:19:21;;;;;;;3.37;1.33;;;;;;;8.56;61.20;98381.53;5025657;28;20204;-77
2022/02/17 10:21:49;;;;;;;5.07;1.23;;;;;;;8.57;62.76;98380.59;5016951;28;20217;-76
2022/02/17 10:24:38;;;;;;;4.63;1.30;;;;;;;8.61;61.97;98416.72;5023816;28;20720;-77
2022/02/17 10:27:06;;;;;;;4.33;1.40;;;;;;;8.59;62.35;98392.59;5018654;28;20294;-76
2022/02/17 10:29:34;;;;;;;3.20;1.43;;;;;;;8.64;63.31;98394.94;5022334;28;20226;-73
2022/02/17 10:32:09;;;;;;;4.67;1.33;;;;;;;8.66;61.76;98386.13;5014068;28;20757;-76
2022/02/17 10:34:35;;;;;;;8.40;1.73;;;;;;;8.61;60.04;98418.47;5019959;28;20209;-76
2022/02/17 10:37:02;;;;;;;3.77;1.50;;;;;;;8.76;59.55;98409.00;5019672;28;20604;-76
2022/02/17 10:39:34;;;;;;;2.60;1.40;;;;;;;9.01;57.89;98416.34;5021738;28;20226;-76
2022/02/17 10:42:05;;;;;;;3.87;1.00;;;;;;;9.08;58.25;98423.69;5022437;28;20206;-76
2022/02/17 10:44:34;;;;;;;5.17;1.13;;;;;;;9.12;58.18;98447.75;5017707;28;20229;-75
2022/02/17 10:47:16;;;;;;;5.40;1.33;;;;;;;9.18;56.42;98451.78;5018847;28;20205;-76
2022/02/17 10:49:45;;;;;;;4.57;1.50;;;;;;;9.17;55.29;98448.34;5016144;28;20241;-76
2022/02/17 10:52:13;;;;;;;5.13;1.73;;;;;;;9.21;55.31;98473.25;5019722;28;20206;-78
2022/02/17 10:54:40;;;;;;;4.67;2.53;;;;;;;9.21;55.35;98467.22;5023796;28;20242;-76
2022/02/17 10:57:12;;;;;;;5.10;1.37;;;;;;;9.19;56.42;98462.09;5021662;28;20212;-76
2022/02/17 11:02:24;;;;;;;7.57;3.37;;;;;;;9.13;55.79;98461.59;5022119;28;20213;-75
2022/02/17 11:04:51;;;;;;;6.00;2.40;;;;;;;9.07;56.35;98487.00;5017186;28;20212;-75
2022/02/17 11:07:18;;;;;;;6.30;3.00;;;;;;;9.09;55.70;98502.53;5018652;28;20196;-74
2022/02/17 11:09:46;;;;;;;6.23;2.80;;;;;;;9.11;55.25;98521.47;5018922;28;20473;-73
2022/02/17 11:12:14;;;;;;;6.47;2.93;;;;;;;9.10;54.60;98501.59;5015602;28;20908;-76
2022/02/17 11:14:42;;;;;;;5.63;2.27;;;;;;;9.06;55.68;98520.91;5023306;28;20213;-75
2022/02/17 11:17:10;;;;;;;6.27;2.33;;;;;;;9.05;53.96;98537.41;5017703;28;20212;-77
2022/02/17 11:19:37;;;;;;;4.60;2.13;;;;;;;9.04;55.60;98510.59;5015582;28;20711;-76
2022/02/17 11:22:05;;;;;;;3.20;2.13;;;;;;;9.10;54.44;98510.25;5020305;28;20192;-74
2022/02/17 11:24:47;;;;;;;4.90;1.90;;;;;;;9.09;54.29;98534.56;5015188;28;20209;-72
2022/02/17 11:27:15;;;;;;;6.77;2.03;;;;;;;9.05;55.32;98533.03;5021259;28;20289;-75
2022/02/17 11:29:42;;;;;;;4.30;1.67;;;;;;;9.07;53.47;98531.19;5013744;28;20228;-75
2022/02/17 11:32:13;;;;;;;3.63;1.60;;;;;;;9.29;52.77;98551.69;5019841;28;20203;-74
2022/02/17 11:34:43;;;;;;;4.27;1.43;;;;;;;9.38;55.06;98550.38;5017663;28;20214;-76
2022/02/17 11:37:44;;;;;;;6.80;1.87;;;;;;;9.23;55.57;98523.44;5018086;28;20197;-76
2022/02/17 11:40:15;;;;;;;7.50;1.50;;;;;;;9.19;55.67;98558.31;5017577;28;20297;-76
2022/02/17 11:42:45;;;;;;;6.80;1.43;;;;;;;9.13;55.85;98550.00;5019705;28;20210;-76
2022/02/17 11:45:15;;;;;;;4.30;1.00;;;;;;;9.11;55.21;98570.88;5016582;28;20217;-76
2022/02/17 11:48:05;;;;;;;3.87;1.50;;;;;;;9.28;54.29;98575.19;5017234;28;20196;-74
2022/02/17 11:50:35;;;;;;;5.33;1.13;;;;;;;9.24;53.66;98590.09;5016172;28;20254;-75
2022/02/17 11:53:27;;;;;;;3.73;0.87;;;;;;;9.35;53.49;98576.53;5021462;28;20661;-75